createdAt,value
2018-02-19T00:02:04.244Z,10.73
2018-02-19T00:04:32.214Z,13.90
2018-02-19T00:07:00.604Z,13.07
2018-02-19T00:09:28.614Z,12.87
2018-02-19T00:11:56.204Z,13.20
2018-02-19T00:14:24.081Z,14.10
2018-02-19T00:16:51.653Z,15.23
2018-02-19T00:19:19.811Z,12.73
2018-02-19T00:21:47.566Z,12.47
2018-02-19T00:24:16.120Z,12.83
2018-02-19T00:26:45.011Z,13.03
2018-02-19T00:29:12.659Z,15.17
2018-02-19T00:31:41.473Z,14.63
2018-02-19T00:34:09.079Z,14.37
2018-02-19T00:36:36.671Z,13.97
2018-02-19T00:39:05.625Z,14.10
2018-02-19T00:41:33.246Z,15.87
2018-02-19T00:44:01.720Z,17.30
2018-02-19T00:46:29.402Z,21.23
2018-02-19T00:48:57.014Z,16.20
2018-02-19T00:51:24.616Z,18.13
2018-02-19T00:53:52.188Z,18.70
2018-02-19T00:56:19.783Z,16.90
2018-02-19T00:58:47.410Z,19.27
2018-02-19T01:01:15.004Z,27.83
2018-02-19T01:03:43.188Z,21.03
2018-02-19T01:06:11.115Z,16.30
2018-02-19T01:08:40.145Z,17.27
2018-02-19T01:11:07.858Z,19.57
2018-02-19T01:13:35.423Z,19.70
2018-02-19T01:16:03.029Z,25.73
2018-02-19T01:18:30.596Z,22.27
2018-02-19T01:20:58.207Z,24.43
2018-02-19T01:23:26.899Z,20.20
2018-02-19T01:25:55.420Z,23.23
2018-02-19T01:28:22.998Z,23.67
2018-02-19T01:30:51.365Z,26.43
2018-02-19T01:33:23.710Z,26.53
2018-02-19T01:35:51.707Z,21.83
2018-02-19T01:38:20.076Z,21.33
2018-02-19T01:40:49.055Z,23.40
2018-02-19T01:43:16.793Z,23.73
2018-02-19T01:45:44.402Z,21.00
2018-02-19T01:48:12.373Z,19.10
2018-02-19T01:50:40.389Z,21.40
2018-02-19T01:53:07.978Z,20.33
2018-02-19T01:55:36.861Z,20.87
2018-02-19T01:58:04.938Z,19.47
2018-02-19T02:00:32.632Z,19.77
2018-02-19T02:03:01.005Z,19.37
2018-02-19T02:05:28.896Z,18.67
2018-02-19T02:07:57.422Z,16.30
2018-02-19T02:10:25.025Z,29.00
2018-02-19T02:12:53.392Z,21.30
2018-02-19T02:15:20.976Z,16.90
2018-02-19T02:17:49.578Z,27.97
2018-02-19T02:20:17.174Z,21.40
2018-02-19T02:22:45.198Z,20.10
2018-02-19T02:25:12.784Z,18.03
2018-02-19T02:27:40.472Z,20.60
2018-02-19T02:30:09.214Z,19.13
2018-02-19T02:32:37.382Z,18.60
2018-02-19T02:35:04.974Z,20.53
2018-02-19T02:37:32.580Z,25.83
2018-02-19T02:40:00.921Z,21.57
2018-02-19T02:42:28.524Z,23.80
2018-02-19T02:44:56.664Z,20.57
2018-02-19T02:47:24.788Z,19.30
2018-02-19T02:49:53.069Z,19.87
2018-02-19T02:52:21.074Z,19.60
2018-02-19T02:54:48.653Z,20.07
2018-02-19T02:57:16.268Z,20.00
2018-02-19T02:59:45.518Z,22.30
2018-02-19T03:02:13.118Z,19.40
2018-02-19T03:04:40.727Z,20.20
2018-02-19T03:07:09.130Z,20.70
2018-02-19T03:09:36.712Z,15.73
2018-02-19T03:12:04.345Z,21.80
2018-02-19T03:14:31.914Z,22.10
2018-02-19T03:16:59.629Z,24.23
2018-02-19T03:19:27.613Z,25.80
2018-02-19T03:21:57.356Z,24.10
2018-02-19T03:24:25.074Z,20.60
2018-02-19T03:26:52.866Z,23.67
2018-02-19T03:29:22.382Z,24.43
2018-02-19T03:31:49.968Z,21.37
2018-02-19T03:34:17.576Z,25.60
2018-02-19T03:36:45.929Z,24.27
2018-02-19T03:39:13.661Z,21.37
2018-02-19T03:41:43.149Z,22.50
2018-02-19T03:44:11.722Z,27.77
2018-02-19T03:46:40.056Z,20.63
2018-02-19T03:49:07.651Z,21.40
2018-02-19T03:51:36.667Z,22.03
2018-02-19T03:54:04.328Z,19.87
2018-02-19T03:56:31.916Z,20.57
2018-02-19T03:58:59.530Z,22.23
2018-02-19T04:01:27.503Z,21.90
2018-02-19T04:03:55.132Z,21.73
2018-02-19T04:06:23.474Z,19.50
2018-02-19T04:08:51.086Z,21.67
2018-02-19T04:11:19.976Z,21.50
2018-02-19T04:13:47.684Z,21.53
2018-02-19T04:16:15.426Z,24.50
2018-02-19T04:18:43.034Z,20.93
2018-02-19T04:21:12.254Z,22.27
2018-02-19T04:23:41.325Z,19.07
2018-02-19T04:26:10.091Z,22.47
2018-02-19T04:28:37.850Z,24.50
2018-02-19T04:31:05.442Z,20.10
2018-02-19T04:33:33.410Z,20.47
2018-02-19T04:36:01.548Z,20.00
2018-02-19T04:38:29.267Z,22.50
2018-02-19T04:40:56.852Z,22.13
2018-02-19T04:43:25.670Z,21.37
2018-02-19T04:45:53.257Z,20.43
2018-02-19T04:48:20.868Z,21.40
2018-02-19T04:50:48.478Z,21.80
2018-02-19T04:53:16.262Z,23.87
2018-02-19T04:55:43.880Z,25.60
2018-02-19T04:58:11.840Z,24.90
2018-02-19T05:00:39.822Z,22.40
2018-02-19T05:03:08.277Z,24.10
2018-02-19T05:05:37.020Z,24.77
2018-02-19T05:08:04.692Z,25.47
2018-02-19T05:10:32.337Z,25.53
2018-02-19T05:13:00.357Z,24.90
2018-02-19T05:15:28.930Z,25.90
2018-02-19T05:17:56.718Z,26.10
2018-02-19T05:20:24.348Z,26.00
2018-02-19T05:22:51.968Z,22.63
2018-02-19T05:25:22.542Z,24.80
2018-02-19T05:27:50.258Z,22.40
2018-02-19T05:30:18.147Z,21.17
2018-02-19T05:32:45.728Z,25.23
2018-02-19T05:35:13.407Z,26.27
2018-02-19T05:37:42.598Z,22.10
2018-02-19T05:40:10.240Z,22.67
2018-02-19T05:42:37.868Z,20.83
2018-02-19T05:45:06.280Z,21.87
2018-02-19T05:47:35.668Z,24.33
2018-02-19T05:50:03.288Z,20.20
2018-02-19T05:52:30.856Z,23.30
2018-02-19T05:54:58.481Z,20.57
2018-02-19T05:57:26.283Z,23.27
2018-02-19T05:59:58.094Z,24.00
2018-02-19T06:02:25.743Z,19.93
2018-02-19T06:04:53.404Z,23.00
2018-02-19T06:07:20.999Z,23.13
2018-02-19T06:09:48.584Z,22.97
2018-02-19T06:12:16.208Z,25.00
2018-02-19T06:14:43.772Z,24.90
2018-02-19T06:17:11.624Z,23.73
2018-02-19T06:19:39.219Z,21.57
2018-02-19T06:22:07.904Z,22.57
2018-02-19T06:24:35.537Z,21.63
2018-02-19T06:27:03.927Z,22.17
2018-02-19T06:29:32.631Z,21.03
2018-02-19T06:32:00.652Z,21.13
2018-02-19T06:34:28.885Z,22.10
2018-02-19T06:36:56.555Z,21.97
2018-02-19T06:39:24.166Z,21.00
2018-02-19T06:41:53.746Z,22.53
2018-02-19T06:44:21.845Z,21.77
2018-02-19T06:46:49.440Z,22.53
2018-02-19T06:49:17.021Z,22.97
2018-02-19T06:51:45.833Z,20.27
2018-02-19T06:54:14.264Z,23.43
2018-02-19T06:56:42.273Z,25.80
2018-02-19T06:59:09.845Z,22.30
2018-02-19T07:01:37.447Z,27.67
2018-02-19T07:04:05.040Z,22.70
2018-02-19T07:06:34.035Z,21.23
2018-02-19T07:09:02.179Z,21.70
2018-02-19T07:11:29.929Z,21.43
2018-02-19T07:13:57.505Z,24.13
2018-02-19T07:16:25.171Z,21.03
2018-02-19T07:18:52.801Z,21.00
2018-02-19T07:21:21.420Z,23.73
2018-02-19T07:23:49.672Z,21.37
2018-02-19T07:26:17.498Z,20.30
2018-02-19T07:28:45.675Z,22.50
2018-02-19T07:31:13.254Z,22.10
2018-02-19T07:33:41.626Z,22.73
2018-02-19T07:36:09.188Z,22.87
2018-02-19T07:38:37.552Z,21.73
2018-02-19T07:41:05.129Z,21.07
2018-02-19T07:43:33.769Z,24.93
2018-02-19T07:46:02.098Z,22.10
2018-02-19T07:48:30.453Z,19.20
2018-02-19T07:50:59.752Z,28.70
2018-02-19T07:53:29.026Z,22.90
2018-02-19T07:55:57.523Z,21.40
2018-02-19T07:58:26.184Z,29.93
2018-02-19T08:00:54.118Z,26.33
2018-02-19T08:03:22.108Z,19.90
2018-02-19T08:05:50.460Z,21.80
2018-02-19T08:08:18.812Z,24.33
2018-02-19T08:10:46.785Z,18.30
2018-02-19T08:13:15.978Z,23.77
2018-02-19T08:15:45.243Z,19.60
2018-02-19T08:18:13.225Z,24.93
2018-02-19T08:20:41.583Z,26.30
2018-02-19T08:23:09.963Z,22.33
2018-02-19T08:25:39.525Z,23.77
2018-02-19T08:28:08.187Z,20.30
2018-02-19T08:30:36.611Z,22.00
2018-02-19T08:33:04.978Z,21.37
2018-02-19T08:35:33.333Z,22.40
2018-02-19T08:38:02.404Z,23.07
2018-02-19T08:40:29.982Z,23.20
2018-02-19T08:42:58.486Z,22.43
2018-02-19T08:45:27.968Z,22.53
2018-02-19T08:47:56.387Z,24.93
2018-02-19T08:50:24.392Z,29.70
2018-02-19T08:52:52.384Z,24.37
2018-02-19T08:55:21.168Z,21.97
2018-02-19T08:57:48.741Z,25.60
2018-02-19T09:00:16.711Z,25.20
2018-02-19T09:02:45.065Z,22.13
2018-02-19T09:05:13.841Z,25.93
2018-02-19T09:07:42.084Z,24.47
2018-02-19T09:10:10.298Z,23.63
2018-02-19T09:12:38.690Z,22.73
2018-02-19T09:15:07.040Z,25.27
2018-02-19T09:17:34.990Z,25.80
2018-02-19T09:20:02.577Z,24.00
2018-02-19T09:22:30.552Z,28.10
2018-02-19T09:24:59.283Z,22.80
2018-02-19T09:27:27.873Z,26.07
2018-02-19T09:29:56.091Z,25.50
2018-02-19T09:32:23.816Z,23.13
2018-02-19T09:34:52.917Z,24.70
2018-02-19T09:37:21.039Z,22.97
2018-02-19T09:39:50.118Z,26.70
2018-02-19T09:42:17.809Z,28.30
2018-02-19T09:44:45.764Z,26.30
2018-02-19T09:47:14.111Z,26.33
2018-02-19T09:49:42.467Z,24.57
2018-02-19T09:52:10.816Z,30.30
2018-02-19T09:54:39.161Z,28.90
2018-02-19T09:57:08.437Z,23.67
2018-02-19T09:59:37.367Z,25.07
2018-02-19T10:02:05.357Z,26.03
2018-02-19T10:04:33.696Z,27.33
2018-02-19T10:07:02.210Z,25.30
2018-02-19T10:09:30.779Z,26.77
2018-02-19T10:11:59.444Z,23.30
2018-02-19T10:14:27.763Z,26.80
2018-02-19T10:16:55.355Z,27.00
2018-02-19T10:19:22.930Z,22.77
2018-02-19T10:21:50.911Z,29.57
2018-02-19T10:24:19.246Z,24.30
2018-02-19T10:26:47.606Z,24.10
2018-02-19T10:29:16.781Z,30.20
2018-02-19T10:31:45.696Z,25.73
2018-02-19T10:34:13.656Z,24.73
2018-02-19T10:36:41.236Z,23.57
2018-02-19T10:39:09.452Z,27.20
2018-02-19T10:41:38.125Z,23.97
2018-02-19T10:44:05.818Z,22.53
2018-02-19T10:46:33.393Z,31.10
2018-02-19T10:49:00.969Z,24.33
2018-02-19T10:51:29.876Z,23.40
2018-02-19T10:53:58.164Z,25.47
2018-02-19T10:56:26.386Z,31.77
2018-02-19T10:58:54.733Z,21.93
2018-02-19T11:01:23.087Z,23.20
2018-02-19T11:03:52.161Z,20.60
2018-02-19T11:06:20.752Z,27.27
2018-02-19T11:08:49.109Z,24.90
2018-02-19T11:11:17.448Z,29.23
2018-02-19T11:13:45.032Z,21.23
2018-02-19T11:16:12.994Z,23.83
2018-02-19T11:18:40.571Z,26.80
2018-02-19T11:21:08.528Z,22.50
2018-02-19T11:23:37.239Z,23.30
2018-02-19T11:26:05.251Z,20.67
2018-02-19T11:28:34.044Z,20.87
2018-02-19T11:31:02.030Z,20.07
2018-02-19T11:33:30.388Z,21.70
2018-02-19T11:35:58.697Z,18.20
2018-02-19T11:38:27.085Z,20.93
2018-02-19T11:40:55.901Z,19.07
2018-02-19T11:43:24.192Z,21.00
2018-02-19T11:45:52.163Z,25.27
2018-02-19T11:48:20.239Z,19.23
2018-02-19T11:50:47.801Z,19.07
2018-02-19T11:53:15.779Z,20.10
2018-02-19T11:55:44.247Z,19.63
2018-02-19T11:58:12.534Z,19.40
2018-02-19T12:00:41.206Z,18.83
2018-02-19T12:03:09.185Z,18.97
2018-02-19T12:05:37.986Z,16.57
2018-02-19T12:08:05.961Z,16.10
2018-02-19T12:10:34.314Z,16.93
2018-02-19T12:13:02.676Z,18.20
2018-02-19T12:15:31.039Z,17.80
2018-02-19T12:17:59.487Z,19.20
2018-02-19T12:20:28.087Z,18.03
2018-02-19T12:22:56.139Z,23.67
2018-02-19T12:25:25.222Z,20.43
2018-02-19T12:27:54.361Z,20.00
2018-02-19T12:30:22.711Z,25.00
2018-02-19T12:32:51.058Z,22.70
2018-02-19T12:35:19.637Z,19.57
2018-02-19T12:37:48.201Z,20.03
2018-02-19T12:40:16.015Z,16.73
2018-02-19T12:42:44.364Z,19.73
2018-02-19T12:45:12.711Z,20.13
2018-02-19T12:47:41.339Z,21.23
2018-02-19T12:50:09.765Z,19.83
2018-02-19T12:52:38.869Z,18.50
2018-02-19T12:55:07.239Z,19.40
2018-02-19T12:57:34.831Z,23.03
2018-02-19T13:00:02.871Z,16.80
2018-02-19T13:02:32.968Z,20.27
2018-02-19T13:05:12.440Z,19.50
2018-02-19T13:07:40.129Z,22.17
2018-02-19T13:10:08.475Z,22.40
2018-02-19T13:12:37.388Z,19.97
2018-02-19T13:15:05.385Z,21.03
2018-02-19T13:17:34.028Z,17.47
2018-02-19T13:20:02.605Z,22.83
2018-02-19T13:22:30.564Z,18.80
2018-02-19T13:24:58.544Z,18.33
2018-02-19T13:27:27.268Z,21.90
2018-02-19T13:29:55.994Z,20.37
2018-02-19T13:32:23.669Z,18.80
2018-02-19T13:34:51.729Z,16.00
2018-02-19T13:37:19.312Z,19.50
2018-02-19T13:39:47.325Z,21.27
2018-02-19T13:42:15.707Z,17.30
2018-02-19T13:44:44.066Z,20.40
2018-02-19T13:47:12.392Z,20.57
2018-02-19T13:49:40.864Z,19.13
2018-02-19T13:52:08.913Z,22.20
2018-02-19T13:54:37.002Z,20.40
2018-02-19T13:57:04.596Z,22.63
2018-02-19T13:59:32.603Z,21.27
2018-02-19T14:02:00.180Z,20.70
2018-02-19T14:04:29.427Z,21.53
2018-02-19T14:06:57.527Z,19.67
2018-02-19T14:09:25.276Z,18.77
2018-02-19T14:11:53.341Z,19.10
2018-02-19T14:14:21.324Z,19.27
2018-02-19T14:16:49.674Z,19.80
2018-02-19T14:19:17.297Z,22.37
2018-02-19T14:21:45.252Z,19.30
2018-02-19T14:24:13.630Z,21.80
2018-02-19T14:26:42.108Z,20.57
2018-02-19T14:29:10.179Z,21.70
2018-02-19T14:31:38.528Z,21.70
2018-02-19T14:34:06.104Z,20.50
2018-02-19T14:36:34.443Z,21.40
2018-02-19T14:39:02.107Z,21.67
2018-02-19T14:41:31.126Z,21.07
2018-02-19T14:43:59.061Z,24.80
2018-02-19T14:46:27.438Z,26.10
2018-02-19T14:48:55.769Z,26.80
2018-02-19T14:51:24.176Z,21.30
2018-02-19T14:53:52.460Z,28.03
2018-02-19T14:56:20.912Z,25.47
2018-02-19T14:58:50.608Z,26.63
2018-02-19T15:01:18.678Z,24.67
2018-02-19T15:03:47.919Z,24.67
2018-02-19T15:06:16.328Z,26.37
2018-02-19T15:08:43.916Z,26.03
2018-02-19T15:11:12.295Z,24.87
2018-02-19T15:13:40.728Z,24.53
2018-02-19T15:16:09.237Z,26.10
2018-02-19T15:18:37.267Z,33.07
2018-02-19T15:21:06.616Z,23.70
2018-02-19T15:23:35.013Z,28.50
2018-02-19T15:26:02.629Z,27.53
2018-02-19T15:28:30.601Z,24.63
2018-02-19T15:30:59.755Z,26.67
2018-02-19T15:33:28.150Z,32.57
2018-02-19T15:35:56.757Z,29.27
2018-02-19T15:38:24.340Z,26.83
2018-02-19T15:40:52.331Z,29.00
2018-02-19T15:43:20.309Z,26.33
2018-02-19T15:45:47.922Z,27.20
2018-02-19T15:48:16.257Z,29.40
2018-02-19T15:50:44.573Z,24.30
2018-02-19T15:53:12.952Z,29.63
2018-02-19T15:55:41.455Z,22.47
2018-02-19T15:58:09.714Z,28.93
2018-02-19T16:00:38.058Z,26.20
2018-02-19T16:03:06.400Z,26.73
2018-02-19T16:05:36.292Z,25.40
2018-02-19T16:08:04.316Z,23.23
2018-02-19T16:10:32.309Z,31.13
2018-02-19T16:12:59.877Z,27.37
2018-02-19T16:15:27.841Z,26.13
2018-02-19T16:17:56.530Z,26.27
2018-02-19T16:20:24.523Z,25.30
2018-02-19T16:22:53.240Z,29.30
2018-02-19T16:25:21.666Z,22.60
2018-02-19T16:27:49.688Z,28.77
2018-02-19T16:30:17.682Z,29.50
2018-02-19T16:32:46.101Z,26.70
2018-02-19T16:35:13.690Z,27.60
2018-02-19T16:37:43.215Z,26.37
2018-02-19T16:40:12.568Z,29.23
2018-02-19T16:42:40.511Z,30.00
2018-02-19T16:45:08.901Z,25.80
2018-02-19T16:47:36.903Z,30.40
2018-02-19T16:50:05.428Z,31.80
2018-02-19T16:52:33.014Z,26.53
2018-02-19T16:55:02.095Z,28.13
2018-02-19T16:57:29.967Z,26.47
2018-02-19T16:59:58.623Z,33.57
2018-02-19T17:02:27.921Z,28.87
2018-02-19T17:04:56.330Z,27.23
2018-02-19T17:07:24.760Z,30.70
2018-02-19T17:09:53.071Z,28.50
2018-02-19T17:12:21.448Z,26.10
2018-02-19T17:14:49.775Z,30.97
2018-02-19T17:17:17.761Z,29.73
2018-02-19T17:19:45.736Z,31.07
2018-02-19T17:22:13.351Z,28.77
2018-02-19T17:24:42.425Z,30.27
2018-02-19T17:27:10.196Z,34.63
2018-02-19T17:29:38.540Z,26.00
2018-02-19T17:32:06.898Z,34.20
2018-02-19T17:34:35.222Z,25.30
2018-02-19T17:37:03.571Z,31.40
2018-02-19T17:39:31.589Z,30.60
2018-02-19T17:41:59.944Z,31.77
2018-02-19T17:44:27.957Z,35.10
2018-02-19T17:46:55.547Z,28.33
2018-02-19T17:49:23.515Z,33.60
2018-02-19T17:51:51.124Z,29.63
2018-02-19T17:54:19.088Z,33.03
2018-02-19T17:56:47.452Z,32.07
2018-02-19T17:59:15.806Z,38.53
2018-02-19T18:01:44.410Z,43.27
2018-02-19T18:04:12.403Z,35.30
2018-02-19T18:06:40.768Z,34.17
2018-02-19T18:09:09.120Z,31.93
2018-02-19T18:11:37.503Z,31.20
2018-02-19T18:14:05.786Z,34.47
2018-02-19T18:16:34.787Z,33.50
2018-02-19T18:19:02.764Z,34.10
2018-02-19T18:21:30.764Z,30.40
2018-02-19T18:23:58.765Z,38.03
2018-02-19T18:26:27.089Z,28.30
2018-02-19T18:28:55.086Z,32.33
2018-02-19T18:31:23.051Z,32.20
2018-02-19T18:33:51.334Z,35.20
2018-02-19T18:36:19.524Z,27.83
2018-02-19T18:38:47.976Z,32.60
2018-02-19T18:41:18.095Z,33.43
2018-02-19T18:43:46.201Z,30.57
2018-02-19T18:46:14.615Z,28.73
2018-02-19T18:48:43.292Z,33.53
2018-02-19T18:51:10.953Z,30.67
2018-02-19T18:53:38.949Z,27.60
2018-02-19T18:56:07.228Z,29.30
2018-02-19T18:58:35.786Z,30.87
2018-02-19T19:01:03.359Z,29.83
2018-02-19T19:03:31.392Z,28.20
2018-02-19T19:06:00.678Z,29.50
2018-02-19T19:08:40.247Z,29.33
2018-02-19T19:11:08.765Z,29.00
2018-02-19T19:13:37.187Z,39.60
2018-02-19T19:16:05.541Z,35.23
2018-02-19T19:18:33.558Z,36.00
2018-02-19T19:21:01.331Z,29.70
2018-02-19T19:23:30.383Z,28.07
2018-02-19T19:25:58.220Z,29.10
2018-02-19T19:28:26.952Z,28.80
2018-02-19T19:30:55.105Z,32.43
2018-02-19T19:33:22.783Z,27.37
2018-02-19T19:35:51.290Z,29.70
2018-02-19T19:38:19.982Z,29.93
2018-02-19T19:40:48.693Z,29.90
2018-02-19T19:43:16.306Z,25.43
2018-02-19T19:45:44.304Z,30.80
2018-02-19T19:48:12.672Z,33.80
2018-02-19T19:50:41.029Z,30.27
2018-02-19T19:53:09.465Z,32.27
2018-02-19T19:55:37.977Z,31.60
2018-02-19T19:58:06.554Z,28.37
2018-02-19T20:00:34.550Z,29.10
2018-02-19T20:03:03.573Z,25.23
2018-02-19T20:05:31.939Z,28.80
2018-02-19T20:07:59.587Z,30.63
2018-02-19T20:10:27.573Z,23.73
2018-02-19T20:12:56.992Z,35.57
2018-02-19T20:15:25.494Z,27.43
2018-02-19T20:17:53.204Z,32.47
2018-02-19T20:20:21.183Z,27.70
2018-02-19T20:25:33.293Z,31.37
2018-02-19T20:28:01.272Z,33.30
2018-02-19T20:30:28.879Z,33.47
2018-02-19T20:32:56.875Z,32.70
2018-02-19T20:35:24.616Z,32.70
2018-02-19T20:37:53.517Z,31.53
2018-02-19T20:40:21.326Z,29.90
2018-02-19T20:42:48.908Z,29.07
2018-02-19T20:45:17.271Z,29.53
2018-02-19T20:47:46.354Z,30.87
2018-02-19T20:50:13.941Z,37.83
2018-02-19T20:52:41.527Z,29.53
2018-02-19T20:55:10.427Z,32.37
2018-02-19T20:57:38.011Z,32.00
2018-02-19T21:00:06.011Z,32.43
2018-02-19T21:02:35.011Z,34.73
2018-02-19T21:05:03.519Z,33.50
2018-02-19T21:07:31.225Z,31.73
2018-02-19T21:09:59.606Z,29.87
2018-02-19T21:12:27.573Z,31.80
2018-02-19T21:14:55.160Z,32.60
2018-02-19T21:17:23.145Z,30.93
2018-02-19T21:19:51.506Z,40.03
2018-02-19T21:22:20.745Z,31.13
2018-02-19T21:24:48.590Z,31.07
2018-02-19T21:27:16.609Z,40.17
2018-02-19T21:29:45.207Z,32.20
2018-02-19T21:32:14.026Z,36.13
2018-02-19T21:34:42.702Z,29.90
2018-02-19T21:37:11.109Z,34.57
2018-02-19T21:39:38.743Z,34.93
2018-02-19T21:42:07.084Z,31.57
2018-02-19T21:44:35.520Z,34.83
2018-02-19T21:47:04.603Z,40.03
2018-02-19T21:49:32.189Z,31.37
2018-02-19T21:52:00.503Z,33.47
2018-02-19T21:54:29.010Z,34.10
2018-02-19T21:56:57.069Z,33.57
2018-02-19T21:59:25.454Z,34.60
2018-02-19T22:01:53.831Z,32.73
2018-02-19T22:04:23.903Z,36.63
2018-02-19T22:06:53.058Z,32.73
2018-02-19T22:09:21.060Z,35.47
2018-02-19T22:11:48.656Z,31.50
2018-02-19T22:14:17.044Z,34.63
2018-02-19T22:16:45.364Z,34.63
2018-02-19T22:19:13.672Z,36.87
2018-02-19T22:21:41.740Z,31.30
2018-02-19T22:24:10.321Z,39.67
2018-02-19T22:26:38.982Z,34.53
2018-02-19T22:29:07.980Z,38.07
2018-02-19T22:31:35.830Z,33.43
2018-02-19T22:34:03.821Z,33.83
2018-02-19T22:36:31.845Z,34.60
2018-02-19T22:38:59.525Z,30.53
2018-02-19T22:41:27.618Z,37.20
2018-02-19T22:43:55.956Z,30.67
2018-02-19T22:46:24.393Z,33.33
2018-02-19T22:48:52.388Z,30.57
2018-02-19T22:51:19.996Z,28.80
2018-02-19T22:53:47.977Z,34.13
2018-02-19T22:56:16.393Z,36.40
2018-02-19T22:58:44.973Z,32.57
2018-02-19T23:01:13.033Z,33.33
2018-02-19T23:03:41.419Z,31.77
2018-02-19T23:06:09.797Z,32.93
2018-02-19T23:08:38.492Z,32.97
2018-02-19T23:11:06.946Z,32.77
2018-02-19T23:13:34.928Z,31.80
2018-02-19T23:16:02.994Z,30.23
2018-02-19T23:18:30.580Z,30.47
2018-02-19T23:20:58.390Z,44.13
2018-02-19T23:23:26.510Z,33.60
2018-02-19T23:25:54.135Z,36.20
2018-02-19T23:28:22.613Z,30.93
2018-02-19T23:30:50.421Z,37.00
2018-02-19T23:33:19.003Z,32.73
2018-02-19T23:35:47.064Z,32.67
2018-02-19T23:38:15.682Z,36.17
2018-02-19T23:40:43.746Z,35.40
2018-02-19T23:43:11.912Z,37.00
2018-02-19T23:45:39.867Z,37.37
2018-02-19T23:48:07.837Z,35.50
2018-02-19T23:50:35.957Z,34.70
2018-02-19T23:53:03.936Z,38.03
2018-02-19T23:55:31.651Z,28.87
2018-02-19T23:57:59.618Z,34.77
